Time;durP1;ratioP1;P1;durP2;ratioP2;P2;SDS_P1;SDS_P2;PMS_P1;PMS_P2;Temp;Humidity;BMP_temperature;BMP_pressure;BME280_temperature;BME280_humidity;BME280_pressure;Samples;Min_cycle;Max_cycle;Signal;HPM_P1;HPM_P2
2023/01/11 00:06:41;;;;;;;4.05;2.47;;;;;;;;;;20927515;28;20396;-60
2023/01/11 00:16:43;;;;;;;4.97;3.08;;;;;;;;;;20924739;28;20052;-62
2023/01/11 00:26:45;;;;;;;6.00;3.08;;;;;;;;;;20924710;28;20055;-62
2023/01/11 00:36:47;;;;;;;5.60;3.55;;;;;;;;;;20923954;28;20091;-60
2023/01/11 00:57:10;;;;;;;5.30;3.38;;;;;;;;;;20922814;28;20060;-61
2023/01/11 01:07:12;;;;;;;6.55;3.72;;;;;;;;;;20921493;28;20087;-61
2023/01/11 01:17:14;;;;;;;6.07;3.53;;;;;;;;;;20920586;28;20101;-61
2023/01/11 01:27:18;;;;;;;5.28;3.42;;;;;;;;;;20920061;28;20135;-62
2023/01/11 01:37:20;;;;;;;5.03;2.55;;;;;;;;;;20919900;28;20514;-61
2023/01/11 01:47:46;;;;;;;5.20;2.75;;;;;;;;;;20919314;28;20041;-62
2023/01/11 01:57:48;;;;;;;4.28;2.70;;;;;;;;;;20908022;28;20102;-66
2023/01/11 02:07:50;;;;;;;4.75;2.85;;;;;;;;;;20916746;28;20053;-62
2023/01/11 02:17:53;;;;;;;4.82;2.35;;;;;;;;;;20915839;28;20076;-63
2023/01/11 02:28:15;;;;;;;4.78;2.60;;;;;;;;;;20916138;28;20048;-63
2023/01/11 02:38:20;;;;;;;4.15;2.25;;;;;;;;;;20915076;28;20110;-61
2023/01/11 02:48:39;;;;;;;5.55;2.70;;;;;;;;;;20914575;28;20049;-61
2023/01/11 02:58:44;;;;;;;4.75;2.60;;;;;;;;;;20913418;28;20084;-61
2023/01/11 03:08:49;;;;;;;3.50;2.17;;;;;;;;;;20912907;28;20041;-63
2023/01/11 03:18:52;;;;;;;3.88;2.28;;;;;;;;;;20917065;28;20519;-61
2023/01/11 03:28:57;;;;;;;3.63;2.00;;;;;;;;;;20928969;28;20409;-64
2023/01/11 03:39:02;;;;;;;4.00;2.10;;;;;;;;;;20928479;28;20134;-65
2023/01/11 03:49:08;;;;;;;2.42;1.50;;;;;;;;;;20928452;28;20041;-64
2023/01/11 03:59:09;;;;;;;2.05;1.13;;;;;;;;;;20927322;28;20056;-62
2023/01/11 04:09:11;;;;;;;4.38;1.73;;;;;;;;;;20926744;28;20519;-62
2023/01/11 04:19:13;;;;;;;2.90;1.90;;;;;;;;;;20925196;28;20045;-61
2023/01/11 04:29:14;;;;;;;3.83;2.60;;;;;;;;;;20924084;28;20539;-61
2023/01/11 04:39:16;;;;;;;5.43;3.17;;;;;;;;;;20924487;28;20470;-62
2023/01/11 04:49:18;;;;;;;6.65;2.88;;;;;;;;;;20922795;28;20049;-61
2023/01/11 04:59:20;;;;;;;5.13;3.20;;;;;;;;;;20922273;28;20052;-62
2023/01/11 05:09:23;;;;;;;4.95;2.72;;;;;;;;;;20921969;28;20167;-64
2023/01/11 05:19:25;;;;;;;6.05;3.20;;;;;;;;;;20920386;28;20056;-61
2023/01/11 05:29:27;;;;;;;3.45;2.28;;;;;;;;;;20920492;28;20401;-68
2023/01/11 05:39:29;;;;;;;3.30;1.73;;;;;;;;;;20918378;28;20044;-66
2023/01/11 05:49:31;;;;;;;3.25;1.75;;;;;;;;;;20918135;28;20140;-63
2023/01/11 05:59:33;;;;;;;3.55;1.80;;;;;;;;;;20918048;28;20045;-64
2023/01/11 06:09:34;;;;;;;4.63;1.77;;;;;;;;;;20917852;28;20523;-66
2023/01/11 06:19:36;;;;;;;4.53;1.92;;;;;;;;;;20915265;28;20061;-64
2023/01/11 06:29:38;;;;;;;2.25;1.63;;;;;;;;;;20914905;28;20504;-65
2023/01/11 06:39:40;;;;;;;2.92;1.38;;;;;;;;;;20915497;28;20127;-64
2023/01/11 06:49:41;;;;;;;1.92;1.17;;;;;;;;;;20915060;28;20045;-60
2023/01/11 06:59:43;;;;;;;2.22;1.23;;;;;;;;;;20914144;28;20041;-64
2023/01/11 07:09:45;;;;;;;4.13;2.30;;;;;;;;;;20913240;28;20412;-63
2023/01/11 07:19:47;;;;;;;3.50;2.05;;;;;;;;;;20912918;28;20052;-61
2023/01/11 07:29:48;;;;;;;4.53;2.38;;;;;;;;;;20912846;28;20133;-62
2023/01/11 07:39:50;;;;;;;4.93;2.70;;;;;;;;;;20912162;28;20132;-61
2023/01/11 07:49:52;;;;;;;5.60;2.72;;;;;;;;;;20912440;28;20095;-59
2023/01/11 07:59:54;;;;;;;5.80;3.33;;;;;;;;;;20910932;28;20045;-62
2023/01/11 08:09:55;;;;;;;8.57;3.95;;;;;;;;;;20923239;28;20055;-60
2023/01/11 08:19:57;;;;;;;5.93;3.30;;;;;;;;;;20925197;28;20087;-61
2023/01/11 08:29:59;;;;;;;6.78;3.70;;;;;;;;;;20924841;28;20049;-61
2023/01/11 08:40:00;;;;;;;12.88;8.82;;;;;;;;;;20923754;28;20080;-62
2023/01/11 08:50:02;;;;;;;7.35;4.40;;;;;;;;;;20922906;28;20064;-61
2023/01/11 09:00:05;;;;;;;8.88;4.88;;;;;;;;;;20922900;28;20151;-62
2023/01/11 09:10:07;;;;;;;11.20;5.15;;;;;;;;;;20921806;28;20060;-63
2023/01/11 09:20:10;;;;;;;10.20;5.85;;;;;;;;;;20920417;28;20060;-61
2023/01/11 09:30:14;;;;;;;9.63;5.00;;;;;;;;;;20919766;28;20075;-61
2023/01/11 09:40:44;;;;;;;9.95;5.10;;;;;;;;;;20919683;28;20101;-62
2023/01/11 09:50:47;;;;;;;7.82;3.38;;;;;;;;;;20916016;28;20489;-62
2023/01/11 10:00:49;;;;;;;4.22;2.30;;;;;;;;;;20916778;28;20429;-65
2023/01/11 10:10:56;;;;;;;6.45;2.40;;;;;;;;;;20916849;28;20095;-60
2023/01/11 10:21:13;;;;;;;5.90;3.03;;;;;;;;;;20915932;28;20049;-61
2023/01/11 10:31:43;;;;;;;5.50;3.17;;;;;;;;;;20913588;28;20167;-61
2023/01/11 10:41:51;;;;;;;;;;;;;;;;;;20914913;28;20505;-62
2023/01/11 10:51:56;;;;;;;5.80;2.63;;;;;;;;;;20914296;28;19932;-62
2023/01/11 11:01:58;;;;;;;8.48;4.07;;;;;;;;;;20914179;28;20408;-67
2023/01/11 11:12:23;;;;;;;8.77;4.88;;;;;;;;;;20914791;28;20136;-67
2023/01/11 11:22:25;;;;;;;15.57;2.80;;;;;;;;;;20577861;28;20049;-63
2023/01/11 11:32:29;;;;;;;9.23;4.68;;;;;;;;;;20577309;28;20139;-64
2023/01/11 11:42:31;;;;;;;9.60;5.10;;;;;;;;;;20585332;28;20055;-64
2023/01/11 11:52:33;;;;;;;9.55;5.20;;;;;;;;;;20658108;28;20103;-66
2023/01/11 12:02:36;;;;;;;9.75;5.97;;;;;;;;;;20926176;28;20053;-63
2023/01/11 12:12:59;;;;;;;10.55;5.70;;;;;;;;;;20924959;28;20549;-67
2023/01/11 12:23:14;;;;;;;10.25;5.70;;;;;;;;;;20924457;28;20459;-63
2023/01/11 12:33:16;;;;;;;11.70;5.65;;;;;;;;;;20925298;28;20070;-62
2023/01/11 12:43:33;;;;;;;9.77;3.85;;;;;;;;;;20930101;28;20049;-69
2023/01/11 12:53:37;;;;;;;6.82;4.45;;;;;;;;;;20922774;28;20084;-63
2023/01/11 13:04:19;;;;;;;11.52;7.13;;;;;;;;;;20922263;28;20127;-67
2023/01/11 13:14:39;;;;;;;7.95;4.97;;;;;;;;;;20585322;28;20050;-66
2023/01/11 13:24:43;;;;;;;7.20;5.18;;;;;;;;;;20581586;28;20058;-62
2023/01/11 13:34:50;;;;;;;12.93;6.63;;;;;;;;;;20584857;28;20054;-61
2023/01/11 13:44:56;;;;;;;8.93;5.57;;;;;;;;;;20801154;28;20390;-59
2023/01/11 13:55:01;;;;;;;8.73;4.63;;;;;;;;;;20834890;28;20049;-62
2023/01/11 14:05:06;;;;;;;7.30;4.50;;;;;;;;;;20833621;28;20179;-65
2023/01/11 14:15:08;;;;;;;7.72;4.43;;;;;;;;;;20833340;28;20076;-59
2023/01/11 14:25:17;;;;;;;7.88;4.63;;;;;;;;;;20833108;28;20048;-65
2023/01/11 14:35:34;;;;;;;8.50;4.35;;;;;;;;;;20831296;28;20057;-61
2023/01/11 14:45:45;;;;;;;8.02;4.72;;;;;;;;;;20830764;28;20056;-63
2023/01/11 14:55:48;;;;;;;7.40;5.28;;;;;;;;;;20832811;28;20542;-61
2023/01/11 15:06:08;;;;;;;30.50;16.25;;;;;;;;;;20831044;28;20048;-60
2023/01/11 15:26:47;;;;;;;28.73;15.93;;;;;;;;;;20857493;28;20045;-59
2023/01/11 15:36:53;;;;;;;23.92;14.60;;;;;;;;;;20857302;28;20481;-60
2023/01/11 15:47:10;;;;;;;25.95;14.68;;;;;;;;;;20857168;28;20052;-60
2023/01/11 15:57:24;;;;;;;26.17;14.07;;;;;;;;;;20856162;28;20065;-60
2023/01/11 16:07:32;;;;;;;22.73;13.85;;;;;;;;;;20855881;28;20056;-63
2023/01/11 16:17:37;;;;;;;21.33;12.52;;;;;;;;;;20855074;28;20140;-61
2023/01/11 16:27:39;;;;;;;16.80;10.38;;;;;;;;;;20847794;28;20045;-65
2023/01/11 16:37:43;;;;;;;6.63;4.35;;;;;;;;;;20842553;28;20049;-67
2023/01/11 16:48:05;;;;;;;15.25;9.13;;;;;;;;;;20852894;28;20087;-63
2023/01/11 16:58:27;;;;;;;17.30;9.05;;;;;;;;;;20918562;28;20087;-63
2023/01/11 17:08:31;;;;;;;18.17;9.88;;;;;;;;;;20922216;28;20389;-68
2023/01/11 17:18:33;;;;;;;18.13;10.75;;;;;;;;;;20918288;28;20049;-66
2023/01/11 17:28:35;;;;;;;15.75;10.35;;;;;;;;;;20918299;28;20052;-66
2023/01/11 17:38:40;;;;;;;18.35;10.85;;;;;;;;;;20916113;28;20075;-61
2023/01/11 17:48:51;;;;;;;19.60;10.15;;;;;;;;;;20913801;28;20057;-61
2023/01/11 17:59:13;;;;;;;16.33;10.70;;;;;;;;;;20917412;28;20060;-61
2023/01/11 18:09:21;;;;;;;16.88;10.77;;;;;;;;;;20916216;28;20048;-66
2023/01/11 18:19:34;;;;;;;17.52;9.50;;;;;;;;;;20915853;28;20501;-63
2023/01/11 18:29:36;;;;;;;17.60;9.38;;;;;;;;;;20915363;28;20068;-63
2023/01/11 18:39:39;;;;;;;18.17;10.48;;;;;;;;;;20915130;28;20123;-65
2023/01/11 18:49:40;;;;;;;14.55;8.93;;;;;;;;;;20913714;28;20053;-66
2023/01/11 18:59:42;;;;;;;13.25;8.60;;;;;;;;;;20913218;28;20128;-62
2023/01/11 19:09:45;;;;;;;12.98;8.48;;;;;;;;;;20913473;28;20080;-71
2023/01/11 19:19:47;;;;;;;15.52;9.18;;;;;;;;;;20912075;28;20114;-65
2023/01/11 19:29:49;;;;;;;16.20;9.85;;;;;;;;;;20912893;28;20055;-68
2023/01/11 19:39:50;;;;;;;16.85;10.40;;;;;;;;;;20912137;28;20049;-64
2023/01/11 19:49:55;;;;;;;16.88;10.43;;;;;;;;;;20912279;28;20052;-67
2023/01/11 19:59:57;;;;;;;16.75;10.65;;;;;;;;;;20914383;28;20048;-70
2023/01/11 20:09:59;;;;;;;22.77;12.57;;;;;;;;;;20926285;28;20455;-66
2023/01/11 20:20:01;;;;;;;12.73;8.02;;;;;;;;;;20925714;28;20053;-69
2023/01/11 20:30:03;;;;;;;13.88;8.45;;;;;;;;;;20925025;28;20056;-70
2023/01/11 20:40:05;;;;;;;11.75;7.82;;;;;;;;;;20924041;28;20049;-70
2023/01/11 20:50:07;;;;;;;14.57;8.32;;;;;;;;;;20923689;28;20513;-61
2023/01/11 21:00:10;;;;;;;12.23;8.15;;;;;;;;;;20923107;28;20496;-72
2023/01/11 21:10:11;;;;;;;16.27;9.45;;;;;;;;;;20920196;28;20059;-72
2023/01/11 21:20:14;;;;;;;13.65;8.23;;;;;;;;;;20920584;28;20132;-72
2023/01/11 21:30:17;;;;;;;14.23;7.72;;;;;;;;;;20921249;28;20473;-73
2023/01/11 21:40:19;;;;;;;19.67;9.73;;;;;;;;;;20919649;28;20052;-72
2023/01/11 21:50:21;;;;;;;15.20;8.27;;;;;;;;;;20918755;28;20049;-70
2023/01/11 22:00:23;;;;;;;14.73;8.57;;;;;;;;;;20917637;28;20380;-73
2023/01/11 22:10:25;;;;;;;18.77;9.82;;;;;;;;;;20916864;28;20151;-73
2023/01/11 22:20:28;;;;;;;20.90;10.95;;;;;;;;;;20915928;28;20063;-71
2023/01/11 22:30:30;;;;;;;19.58;9.77;;;;;;;;;;20915092;28;20413;-70
2023/01/11 22:40:32;;;;;;;16.25;9.77;;;;;;;;;;20914799;28;20052;-62
2023/01/11 22:50:34;;;;;;;17.15;9.90;;;;;;;;;;20914640;28;20049;-70
2023/01/11 23:00:37;;;;;;;17.50;9.18;;;;;;;;;;20913442;28;20045;-70
2023/01/11 23:10:41;;;;;;;17.65;9.15;;;;;;;;;;20917760;28;20052;-71
2023/01/11 23:20:43;;;;;;;16.35;9.00;;;;;;;;;;20920756;28;20049;-62
2023/01/11 23:30:45;;;;;;;16.23;8.82;;;;;;;;;;20917352;28;20075;-69
2023/01/11 23:51:09;;;;;;;19.58;10.48;;;;;;;;;;20929269;28;20053;-63
